Tufão CHANTHU 2021: trajetória, intensidade e histórico
20/09/2021, 00:00:00
5/09/2021, 06:00:00 – 20/09/2021, 00:00:00
Trajetória histórica
Acompanhe a evolução e o deslocamento de Tufão CHANTHU em 2021, com a trajetória completa registrada, ventos máximos sustentados de 155 nós, pressão central mínima e cronologia detalhada.
| Data | Hora | Tipo | Ventokm/h | PressãohPa |
|---|---|---|---|---|
| 20/09 | 00:00 | EXCiclone extratropical | -- | 1010 |
| 19/09 | 21:00 | EXCiclone extratropical | -- | 1010 |
| 19/09 | 18:00 | EXCiclone extratropical | -- | 1010 |
| 19/09 | 15:00 | EXCiclone extratropical | -- | 1010 |
| 19/09 | 12:00 | EXCiclone extratropical | -- | 1010 |
| 19/09 | 09:00 | EXCiclone extratropical | -- | 1009 |
| 19/09 | 06:00 | EXCiclone extratropical | 45 | 1008 |
| 19/09 | 03:00 | EXCiclone extratropical | 45 | 1008 |
| 19/09 | 00:00 | EXCiclone extratropical | 45 | 1008 |
| 18/09 | 21:00 | EXCiclone extratropical | 45 | 1007 |
| 18/09 | 18:00 | EXCiclone extratropical | 45 | 1006 |
| 18/09 | 15:00 | EXCiclone extratropical | 45 | 1005 |
| 18/09 | 12:00 | EXCiclone extratropical | 45 | 1004 |
| 18/09 | 09:00 | DBPerturbação tropical | 30 | 1005 |
| 18/09 | 06:00 | EXCiclone extratropical | 45 | 1000 |
| 18/09 | 03:00 | TSTempestade tropical | 45 | 1001 |
| 18/09 | 00:00 | TSTempestade tropical | 45 | 1001 |
| 17/09 | 21:00 | TSTempestade tropical | 50 | 1001 |
| 17/09 | 18:00 | TSTempestade tropical | 55 | 1000 |
| 17/09 | 15:00 | TSTempestade tropical | 60 | 1000 |
| 17/09 | 12:00 | TSTempestade tropical | 65 | 999 |
| 17/09 | 09:00 | STSTempestade tropical severa | 70 | 996 |
| 17/09 | 06:00 | STSTempestade tropical severa | 75 | 993 |
| 17/09 | 03:00 | STSTempestade tropical severa | 75 | 994 |
| 17/09 | 00:00 | STSTempestade tropical severa | 75 | 994 |
| 16/09 | 21:00 | STSTempestade tropical severa | 80 | 992 |
| 16/09 | 18:00 | STSTempestade tropical severa | 85 | 989 |
| 16/09 | 15:00 | STSTempestade tropical severa | 90 | 988 |
| 16/09 | 12:00 | STSTempestade tropical severa | 95 | 986 |
| 16/09 | 09:00 | TSTempestade tropical | 100 | 985 |
| 16/09 | 06:00 | STSTempestade tropical severa | 100 | 983 |
| 16/09 | 03:00 | TSTempestade tropical | 100 | 983 |
| 16/09 | 00:00 | STSTempestade tropical severa | 100 | 982 |
| 15/09 | 21:00 | TSTempestade tropical | 100 | 985 |
| 15/09 | 18:00 | STSTempestade tropical severa | 95 | 987 |
| 15/09 | 15:00 | TSTempestade tropical | 90 | 989 |
| 15/09 | 12:00 | TSTempestade tropical | 85 | 991 |
| 15/09 | 09:00 | TSTempestade tropical | 85 | 991 |
| 15/09 | 06:00 | TSTempestade tropical | 85 | 991 |
| 15/09 | 03:00 | TSTempestade tropical | 80 | 993 |
| 15/09 | 00:00 | TSTempestade tropical | 75 | 994 |
| 14/09 | 21:00 | TSTempestade tropical | 70 | 995 |
| 14/09 | 18:00 | TSTempestade tropical | 65 | 996 |
| 14/09 | 15:00 | TSTempestade tropical | 65 | 995 |
| 14/09 | 12:00 | STSTempestade tropical severa | 65 | 994 |
| 14/09 | 09:00 | TSTempestade tropical | 70 | 993 |
| 14/09 | 06:00 | STSTempestade tropical severa | 75 | 991 |
| 14/09 | 03:00 | TSTempestade tropical | 75 | 991 |
| 14/09 | 00:00 | TTufão | 75 | 990 |
| 13/09 | 21:00 | TSTempestade tropical | 90 | 985 |
| 13/09 | 18:00 | TTufão | 100 | 980 |
| 13/09 | 15:00 | TTufão | 110 | 978 |
| 13/09 | 12:00 | TTufão | 120 | 975 |
| 13/09 | 09:00 | TTufão | 130 | 972 |
| 13/09 | 06:00 | TTufão | 140 | 968 |
| 13/09 | 03:00 | TTufão | 150 | 964 |
| 13/09 | 00:00 | TTufão | 155 | 959 |
| 12/09 | 21:00 | TTufão | 165 | 956 |
| 12/09 | 18:00 | TTufão | 165 | 953 |
| 12/09 | 15:00 | TTufão | 170 | 951 |
| 12/09 | 12:00 | TTufão | 175 | 949 |
| 12/09 | 09:00 | STSupertufão | 185 | 946 |
| 12/09 | 06:00 | STSupertufão | 195 | 943 |
| 12/09 | 03:00 | STSupertufão | 195 | 946 |
| 12/09 | 00:00 | STSupertufão | 195 | 948 |
| 11/09 | 21:00 | STSupertufão | 200 | 946 |
| 11/09 | 18:00 | STSupertufão | 205 | 944 |
| 11/09 | 15:00 | STSupertufão | 205 | 945 |
| 11/09 | 12:00 | STSupertufão | 205 | 945 |
| 11/09 | 09:00 | STSupertufão | 220 | 935 |
| 11/09 | 06:00 | STSupertufão | 240 | 925 |
| 11/09 | 03:00 | STSupertufão | 255 | 920 |
| 11/09 | 00:00 | STSupertufão | 270 | 915 |
| 10/09 | 21:00 | STSupertufão | 280 | 909 |
| 10/09 | 18:00 | STSupertufão | 285 | 902 |
| 10/09 | 15:00 | STSupertufão | 285 | 907 |
| 10/09 | 12:00 | STSupertufão | 280 | 911 |
| 10/09 | 09:00 | STSupertufão | 275 | 914 |
| 10/09 | 06:00 | STSupertufão | 270 | 916 |
| 10/09 | 03:00 | STSupertufão | 260 | 922 |
| 10/09 | 00:00 | STSupertufão | 250 | 928 |
| 09/09 | 21:00 | STSupertufão | 240 | 932 |
| 09/09 | 18:00 | STSupertufão | 230 | 936 |
| 09/09 | 15:00 | STSupertufão | 230 | 939 |
| 09/09 | 12:00 | STSupertufão | 220 | 942 |
| 09/09 | 09:00 | STSupertufão | 230 | 937 |
| 09/09 | 06:00 | STSupertufão | 240 | 932 |
| 09/09 | 03:00 | STSupertufão | 250 | 928 |
| 09/09 | 00:00 | STSupertufão | 260 | 924 |
| 08/09 | 21:00 | STSupertufão | 255 | 927 |
| 08/09 | 18:00 | STSupertufão | 250 | 929 |
| 08/09 | 15:00 | STSupertufão | 245 | 932 |
| 08/09 | 12:00 | STSupertufão | 240 | 935 |
| 08/09 | 09:00 | STSupertufão | 250 | 929 |
| 08/09 | 06:00 | STSupertufão | 260 | 922 |
| 08/09 | 03:00 | STSupertufão | 250 | 927 |
| 08/09 | 00:00 | STSupertufão | 240 | 932 |
| 07/09 | 21:00 | STSupertufão | 235 | 935 |
| 07/09 | 18:00 | STSupertufão | 230 | 937 |
| 07/09 | 15:00 | STSupertufão | 205 | 952 |
| 07/09 | 12:00 | TTufão | 175 | 966 |
| 07/09 | 09:00 | TTufão | 150 | 976 |
| 07/09 | 06:00 | STSTempestade tropical severa | 120 | 985 |
| 07/09 | 03:00 | TSTempestade tropical | 105 | 990 |
| 07/09 | 00:00 | TSTempestade tropical | 95 | 995 |
| 06/09 | 21:00 | TSTempestade tropical | 90 | 996 |
| 06/09 | 18:00 | TSTempestade tropical | 85 | 997 |
| 06/09 | 15:00 | TSTempestade tropical | 75 | 998 |
| 06/09 | 12:00 | TSTempestade tropical | 65 | 999 |
| 06/09 | 09:00 | TDDepressão tropical | 60 | 1000 |
| 06/09 | 06:00 | TDDepressão tropical | 55 | 1001 |
| 06/09 | 03:00 | TDDepressão tropical | 50 | 1003 |
| 06/09 | 00:00 | TDDepressão tropical | 45 | 1004 |
| 05/09 | 21:00 | DBPerturbação tropical | 45 | 1005 |
| 05/09 | 18:00 | TDDepressão tropical | 35 | 1006 |
| 05/09 | 15:00 | TDDepressão tropical | 45 | 1007 |
| 05/09 | 12:00 | TDDepressão tropical | 45 | 1008 |
| 05/09 | 09:00 | TDDepressão tropical | -- | 1007 |
| 05/09 | 06:00 | TDDepressão tropical | -- | 1006 |
Cronologia de localização
119 Registos de localizaçãoTambém pode encontrar estas ferramentas úteis
A localização, a extensão e o estado de cada evento podem ser atualizados em momentos diferentes consoante a fonte. Confirme decisões importantes junto das autoridades oficiais de emergência.
Os registos de eventos provêm da NASA EONET e são complementados por registos de deslizamentos de terra do USGS FDSN. As análises e previsões de tempestades podem utilizar a NOAA NHC ou o JTWC, com registos históricos ATCF da UCAR/NCAR quando disponíveis. As imagens de satélite provêm da NASA Worldview/GIBS (GOES e Himawari) ou da EUMETSAT Meteosat, consoante a cobertura do mapa.
Fontes: NASA EONET · USGS · NOAA NHC · JTWC · UCAR/NCAR ATCF · NASA Worldview/GIBS · EUMETSAT Meteosat · OpenStreetMap contributors